Terminal Aerodrome Forecast
Issued by NWS

Current Version | Previous Version | Text Only | Print | Product List | Glossary On
Versions: 1 2 3 4 5 6 7 8 9 10 11 12 13 14 15 16 17 18 19 20 21 22 23
000
FTUS43 KICT 201127
TAFRSL
TAF
KRSL 201127Z 2012/2112 21009KT 5SM BR SCT250
     FM201500 21009KT P6SM SCT250
     FM210900 20008KT P6SM BKN015=

USA.gov is the U.S. government's official web portal to all federal, state and local government web resources and services.